createdAt,value
2022-07-31T00:00:27.113Z,8.00
2022-07-31T00:03:07.826Z,6.90
2022-07-31T00:05:38.651Z,7.40
2022-07-31T00:08:10.694Z,6.90
2022-07-31T00:10:38.729Z,7.60
2022-07-31T00:13:06.733Z,6.30
2022-07-31T00:15:34.574Z,6.90
2022-07-31T00:18:02.342Z,8.70
2022-07-31T00:20:30.407Z,8.70
2022-07-31T00:22:58.165Z,6.30
2022-07-31T00:25:26.236Z,9.40
2022-07-31T00:27:54.305Z,9.50
2022-07-31T00:30:22.191Z,7.40
2022-07-31T00:32:51.775Z,7.50
2022-07-31T00:35:19.883Z,7.70
2022-07-31T00:37:47.933Z,8.20
2022-07-31T00:40:17.922Z,8.90
2022-07-31T00:42:46.272Z,12.90
2022-07-31T00:45:14.120Z,10.80
2022-07-31T00:47:42.735Z,9.50
2022-07-31T00:50:12.104Z,8.80
2022-07-31T00:52:40.188Z,9.00
2022-07-31T00:55:08.817Z,10.70
2022-07-31T00:57:37.040Z,11.30
2022-07-31T01:00:05.951Z,9.80
2022-07-31T01:02:33.783Z,8.50
2022-07-31T01:05:01.764Z,11.00
2022-07-31T01:07:29.940Z,8.90
2022-07-31T01:09:59.425Z,8.30
2022-07-31T01:12:38.680Z,8.40
2022-07-31T01:15:09.416Z,8.60
2022-07-31T01:17:40.080Z,8.30
2022-07-31T01:20:08.935Z,7.70
2022-07-31T01:23:18.117Z,8.50
2022-07-31T01:26:01.162Z,8.50
2022-07-31T01:28:59.883Z,8.90
2022-07-31T01:31:45.577Z,8.20
2022-07-31T01:34:37.992Z,7.70
2022-07-31T01:37:20.875Z,8.90
2022-07-31T01:39:54.762Z,8.60
2022-07-31T01:42:26.207Z,8.30
2022-07-31T01:44:58.170Z,9.60
2022-07-31T01:47:28.198Z,9.60
2022-07-31T01:49:58.700Z,9.00
2022-07-31T01:52:29.578Z,9.40
2022-07-31T01:54:59.369Z,8.80
2022-07-31T01:57:29.643Z,8.70
2022-07-31T02:00:02.121Z,11.40
2022-07-31T02:02:31.172Z,8.50
2022-07-31T02:04:59.545Z,8.80
2022-07-31T02:07:29.658Z,8.20
2022-07-31T02:09:59.301Z,8.10
2022-07-31T02:12:32.159Z,10.60
2022-07-31T02:15:07.756Z,8.20
2022-07-31T02:17:36.787Z,8.50
2022-07-31T02:20:08.082Z,8.40
2022-07-31T02:22:36.220Z,7.90
2022-07-31T02:25:06.275Z,10.20
2022-07-31T02:27:53.562Z,7.80
2022-07-31T02:30:26.546Z,7.90
2022-07-31T02:32:55.077Z,9.40
2022-07-31T02:35:23.978Z,7.90
2022-07-31T02:37:55.877Z,8.30
2022-07-31T02:40:25.820Z,8.10
2022-07-31T02:42:55.255Z,8.30
2022-07-31T02:45:23.606Z,10.20
2022-07-31T02:47:51.800Z,10.90
2022-07-31T02:50:20.258Z,8.50
2022-07-31T02:52:48.615Z,10.50
2022-07-31T02:55:18.602Z,7.90
2022-07-31T02:57:48.312Z,7.90
2022-07-31T03:00:22.758Z,48.40
2022-07-31T03:02:51.416Z,16.80
2022-07-31T03:05:19.744Z,10.40
2022-07-31T03:07:48.308Z,7.70
2022-07-31T03:10:16.556Z,8.60
2022-07-31T03:12:47.826Z,11.50
2022-07-31T03:15:17.869Z,7.80
2022-07-31T03:17:48.095Z,10.70
2022-07-31T03:20:16.725Z,7.00
2022-07-31T03:22:45.557Z,9.30
2022-07-31T03:25:21.641Z,7.10
2022-07-31T03:27:56.265Z,9.30
2022-07-31T03:30:25.444Z,11.50
2022-07-31T03:32:55.001Z,9.60
2022-07-31T03:35:24.647Z,8.00
2022-07-31T03:37:52.644Z,6.40
2022-07-31T03:40:20.503Z,8.10
2022-07-31T03:42:50.058Z,8.50
2022-07-31T03:45:19.424Z,8.10
2022-07-31T03:47:47.596Z,7.80
2022-07-31T03:50:16.179Z,7.00
2022-07-31T03:52:46.677Z,6.90
2022-07-31T03:55:14.702Z,9.20
2022-07-31T03:57:43.533Z,9.10
2022-07-31T04:00:17.038Z,6.80
2022-07-31T04:02:46.115Z,7.50
2022-07-31T04:05:14.444Z,7.60
2022-07-31T04:07:42.296Z,8.10
2022-07-31T04:10:10.867Z,7.00
2022-07-31T04:12:39.501Z,8.70
2022-07-31T04:15:07.954Z,7.10
2022-07-31T04:17:37.150Z,8.40
2022-07-31T04:20:06.151Z,9.50
2022-07-31T04:22:34.116Z,8.60
2022-07-31T04:25:04.859Z,7.00
2022-07-31T04:27:32.601Z,7.70
2022-07-31T04:30:00.316Z,7.10
2022-07-31T04:32:28.305Z,12.20
2022-07-31T04:34:56.140Z,8.20
2022-07-31T04:37:23.912Z,11.40
2022-07-31T04:39:51.621Z,6.80
2022-07-31T04:42:19.377Z,7.10
2022-07-31T04:44:47.356Z,6.90
2022-07-31T04:47:15.086Z,8.90
2022-07-31T04:49:43.067Z,7.90
2022-07-31T04:52:10.825Z,8.10
2022-07-31T04:54:39.174Z,8.80
2022-07-31T04:57:07.224Z,6.60
2022-07-31T05:00:00.598Z,6.60
2022-07-31T05:02:23.196Z,7.90
2022-07-31T05:04:56.726Z,5.70
2022-07-31T05:07:27.709Z,7.00
2022-07-31T05:09:58.852Z,6.40
2022-07-31T05:12:27.232Z,6.90
2022-07-31T05:14:55.038Z,6.80
2022-07-31T05:17:22.928Z,8.10
2022-07-31T05:19:50.753Z,10.50
2022-07-31T05:22:18.927Z,6.70
2022-07-31T05:24:46.811Z,6.70
2022-07-31T05:27:14.695Z,6.60
2022-07-31T05:29:42.601Z,6.10
2022-07-31T05:32:10.684Z,8.50
2022-07-31T05:34:38.599Z,9.00
2022-07-31T05:37:06.507Z,9.30
2022-07-31T05:39:34.337Z,6.90
2022-07-31T05:42:02.465Z,8.20
2022-07-31T05:44:30.401Z,7.10
2022-07-31T05:49:29.001Z,6.40
2022-07-31T05:51:56.887Z,7.80
2022-07-31T05:54:24.704Z,8.60
2022-07-31T05:56:52.615Z,7.50
2022-07-31T05:59:20.467Z,7.10
2022-07-31T06:01:48.255Z,7.60
2022-07-31T06:04:16.252Z,9.50
2022-07-31T06:06:43.954Z,6.80
2022-07-31T06:09:11.847Z,7.00
2022-07-31T06:11:39.677Z,7.60
2022-07-31T06:14:07.407Z,7.20
2022-07-31T06:16:35.245Z,8.50
2022-07-31T06:19:03.189Z,10.20
2022-07-31T06:21:31.122Z,7.90
2022-07-31T06:23:58.927Z,8.10
2022-07-31T06:26:26.836Z,7.40
2022-07-31T06:28:55.587Z,7.90
2022-07-31T06:31:23.696Z,7.80
2022-07-31T06:33:51.508Z,8.20
2022-07-31T06:36:21.027Z,7.70
2022-07-31T06:38:48.834Z,8.80
2022-07-31T06:41:36.604Z,7.70
2022-07-31T06:44:05.052Z,8.00
2022-07-31T06:46:32.811Z,8.50
2022-07-31T06:49:02.627Z,7.40
2022-07-31T06:51:32.605Z,9.70
2022-07-31T06:54:01.868Z,11.10
2022-07-31T06:56:30.919Z,9.20
2022-07-31T06:58:58.683Z,10.40
2022-07-31T07:01:26.747Z,8.10
2022-07-31T07:03:55.232Z,9.60
2022-07-31T07:06:23.652Z,8.20
2022-07-31T07:08:52.507Z,9.10
2022-07-31T07:11:21.415Z,7.90
2022-07-31T07:13:49.704Z,7.70
2022-07-31T07:16:17.589Z,9.10
2022-07-31T07:18:45.335Z,6.60
2022-07-31T07:21:13.196Z,8.40
2022-07-31T07:23:41.362Z,7.10
2022-07-31T07:26:09.379Z,8.30
2022-07-31T07:28:37.437Z,6.00
2022-07-31T07:31:06.097Z,6.40
2022-07-31T07:33:40.651Z,6.20
2022-07-31T07:36:22.320Z,5.30
2022-07-31T07:38:55.177Z,5.20
2022-07-31T07:41:25.184Z,5.50
2022-07-31T07:43:54.034Z,6.50
2022-07-31T07:46:22.935Z,5.70
2022-07-31T07:48:52.619Z,6.60
2022-07-31T07:51:20.988Z,7.20
2022-07-31T07:53:48.859Z,7.90
2022-07-31T07:56:17.516Z,4.30
2022-07-31T07:58:45.313Z,8.30
2022-07-31T08:01:13.259Z,4.80
2022-07-31T08:03:49.099Z,7.20
2022-07-31T08:06:21.665Z,5.30
2022-07-31T08:08:49.838Z,4.30
2022-07-31T08:11:18.056Z,4.00
2022-07-31T08:13:50.611Z,6.00
2022-07-31T08:16:20.431Z,7.50
2022-07-31T08:18:49.547Z,6.00
2022-07-31T08:21:17.826Z,3.40
2022-07-31T08:23:45.802Z,5.50
2022-07-31T08:26:14.045Z,4.40
2022-07-31T08:28:50.790Z,6.70
2022-07-31T08:31:20.133Z,4.60
2022-07-31T08:33:48.017Z,3.70
2022-07-31T08:36:16.624Z,4.30
2022-07-31T08:38:44.431Z,3.70
2022-07-31T08:41:14.790Z,4.90
2022-07-31T08:44:02.331Z,5.40
2022-07-31T08:46:37.520Z,5.90
2022-07-31T08:49:07.782Z,4.40
2022-07-31T08:52:00.868Z,13.70
2022-07-31T08:54:27.907Z,3.00
2022-07-31T08:56:55.799Z,3.70
2022-07-31T08:59:23.583Z,5.40
2022-07-31T09:01:51.603Z,6.70
2022-07-31T09:04:19.441Z,5.20
2022-07-31T09:06:47.161Z,6.80
2022-07-31T09:09:16.733Z,3.90
2022-07-31T09:11:49.875Z,4.60
2022-07-31T09:14:30.128Z,4.60
2022-07-31T09:16:58.184Z,5.80
2022-07-31T09:19:54.163Z,4.00
2022-07-31T09:22:24.303Z,4.50
2022-07-31T09:24:53.325Z,7.50
2022-07-31T09:27:28.818Z,2.90
2022-07-31T09:29:57.466Z,7.20
2022-07-31T09:32:25.176Z,5.50
2022-07-31T09:34:52.893Z,4.20
2022-07-31T09:37:25.332Z,3.50
2022-07-31T09:39:54.853Z,4.10
2022-07-31T09:42:36.653Z,2.80
2022-07-31T09:45:20.848Z,4.10
2022-07-31T09:48:03.020Z,2.60
2022-07-31T09:50:31.043Z,4.70
2022-07-31T09:53:00.896Z,4.60
2022-07-31T09:55:29.049Z,3.20
2022-07-31T09:57:59.301Z,4.10
2022-07-31T10:00:27.988Z,1.90
2022-07-31T10:02:57.387Z,1.90
2022-07-31T10:05:27.527Z,3.80
2022-07-31T10:08:00.452Z,2.30
2022-07-31T10:10:30.392Z,2.70
2022-07-31T10:13:02.468Z,2.90
2022-07-31T10:15:32.372Z,2.00
2022-07-31T10:18:02.296Z,1.60
2022-07-31T10:20:32.915Z,1.30
2022-07-31T10:23:09.315Z,2.90
2022-07-31T10:25:53.552Z,3.20
2022-07-31T10:28:22.275Z,2.80
2022-07-31T10:30:50.817Z,1.50
2022-07-31T10:33:42.313Z,2.10
2022-07-31T10:36:19.973Z,1.40
2022-07-31T10:39:08.701Z,2.20
2022-07-31T10:41:36.577Z,1.50
2022-07-31T10:44:22.867Z,2.70
2022-07-31T10:46:50.671Z,2.30
2022-07-31T10:49:18.779Z,2.20
2022-07-31T10:51:51.202Z,3.20
2022-07-31T10:54:18.999Z,1.30
2022-07-31T10:56:48.281Z,1.90
2022-07-31T10:59:16.259Z,1.40
2022-07-31T11:01:52.490Z,1.90
2022-07-31T11:04:34.703Z,2.40
2022-07-31T11:07:02.677Z,2.60
2022-07-31T11:09:30.933Z,2.40
2022-07-31T11:11:58.778Z,3.80
2022-07-31T11:14:39.044Z,2.60
2022-07-31T11:17:07.336Z,2.50
2022-07-31T11:19:43.187Z,2.80
2022-07-31T11:22:31.864Z,1.70
2022-07-31T11:25:01.132Z,2.00
2022-07-31T11:27:33.079Z,1.70
2022-07-31T11:30:13.043Z,2.40
2022-07-31T11:32:47.560Z,3.50
2022-07-31T11:35:33.365Z,3.00
2022-07-31T11:38:01.322Z,1.70
2022-07-31T11:40:29.467Z,1.10
2022-07-31T11:45:52.205Z,1.50
2022-07-31T11:48:21.467Z,3.70
2022-07-31T11:50:50.552Z,1.20
2022-07-31T11:53:19.662Z,1.20
2022-07-31T11:55:54.018Z,1.70
2022-07-31T11:58:23.706Z,3.10
2022-07-31T12:01:02.710Z,1.80
2022-07-31T12:03:38.964Z,1.30
2022-07-31T12:06:08.642Z,2.80
2022-07-31T12:08:39.918Z,4.80
2022-07-31T12:11:09.523Z,3.70
2022-07-31T12:13:39.053Z,1.60
2022-07-31T12:16:11.333Z,2.50
2022-07-31T12:18:51.162Z,3.20
2022-07-31T12:21:20.199Z,3.00
2022-07-31T12:23:51.380Z,2.50
2022-07-31T12:26:32.985Z,1.50
2022-07-31T12:29:09.756Z,2.40
2022-07-31T12:32:04.804Z,2.60
2022-07-31T12:34:40.739Z,1.20
2022-07-31T12:37:09.541Z,1.60
2022-07-31T12:39:53.792Z,1.20
2022-07-31T12:42:27.749Z,1.50
2022-07-31T12:45:19.996Z,1.10
2022-07-31T12:47:54.068Z,1.00
2022-07-31T12:50:24.373Z,1.40
2022-07-31T12:52:52.764Z,2.20
2022-07-31T12:55:21.057Z,2.20
2022-07-31T12:57:51.802Z,1.50
2022-07-31T13:00:23.335Z,1.90
2022-07-31T13:02:56.627Z,3.70
2022-07-31T13:05:25.114Z,1.40
2022-07-31T13:07:53.975Z,0.90
2022-07-31T13:10:24.950Z,1.50
2022-07-31T13:13:00.448Z,1.90
2022-07-31T13:15:31.048Z,2.00
2022-07-31T13:18:04.858Z,2.00
2022-07-31T13:20:32.998Z,0.70
2022-07-31T13:23:02.498Z,1.50
2022-07-31T13:25:30.957Z,1.10
2022-07-31T13:27:59.482Z,1.70
2022-07-31T13:30:28.377Z,1.10
2022-07-31T13:32:56.442Z,4.30
2022-07-31T13:35:28.555Z,0.90
2022-07-31T13:37:57.419Z,0.70
2022-07-31T13:40:44.852Z,2.10
2022-07-31T13:43:13.335Z,1.00
2022-07-31T13:45:41.070Z,1.40
2022-07-31T13:48:09.843Z,2.90
2022-07-31T13:50:39.997Z,1.00
2022-07-31T13:53:09.031Z,1.40
2022-07-31T13:55:37.651Z,2.10
2022-07-31T13:58:05.762Z,2.60
2022-07-31T14:00:33.517Z,1.10
2022-07-31T14:03:01.447Z,2.20
2022-07-31T14:05:29.221Z,1.70
2022-07-31T14:08:03.230Z,2.10
2022-07-31T14:10:48.463Z,4.10
2022-07-31T14:13:19.236Z,0.90
2022-07-31T14:15:47.860Z,1.70
2022-07-31T14:18:15.815Z,1.40
2022-07-31T14:20:43.633Z,1.30
2022-07-31T14:23:11.503Z,2.60
2022-07-31T14:25:40.525Z,2.00
2022-07-31T14:28:09.922Z,1.10
2022-07-31T14:30:37.926Z,1.20
2022-07-31T14:33:05.767Z,1.20
2022-07-31T14:35:33.869Z,2.40
2022-07-31T14:38:04.257Z,4.90
2022-07-31T14:40:32.466Z,0.70
2022-07-31T14:43:00.193Z,1.80
2022-07-31T14:45:28.291Z,0.80
2022-07-31T14:47:56.409Z,2.30
2022-07-31T14:50:24.535Z,1.10
2022-07-31T14:52:52.458Z,1.00
2022-07-31T14:55:21.087Z,1.00
2022-07-31T14:57:49.195Z,2.20
2022-07-31T15:00:17.057Z,1.90
2022-07-31T15:02:45.511Z,2.40
2022-07-31T15:06:40.763Z,1.20
2022-07-31T15:08:02.645Z,2.00
2022-07-31T15:10:32.139Z,4.10
2022-07-31T15:12:59.971Z,1.30
2022-07-31T15:15:28.623Z,0.80
2022-07-31T15:17:56.904Z,2.20
2022-07-31T15:20:32.769Z,1.00
2022-07-31T15:23:02.035Z,2.20
2022-07-31T15:25:30.700Z,1.50
2022-07-31T15:27:58.488Z,0.90
2022-07-31T15:30:26.237Z,2.80
2022-07-31T15:32:54.083Z,2.20
2022-07-31T15:35:21.761Z,1.90
2022-07-31T15:37:52.654Z,1.60
2022-07-31T15:40:20.411Z,0.80
2022-07-31T15:42:49.189Z,1.70
2022-07-31T15:45:19.025Z,1.60
2022-07-31T15:47:48.484Z,1.80
2022-07-31T15:50:20.439Z,3.20
2022-07-31T15:52:49.779Z,5.80
2022-07-31T15:55:18.274Z,1.90
2022-07-31T15:57:46.848Z,4.90
2022-07-31T16:00:15.250Z,1.10
2022-07-31T16:02:45.408Z,1.90
2022-07-31T16:05:21.567Z,2.10
2022-07-31T16:08:28.601Z,3.00
2022-07-31T16:10:54.645Z,2.50
2022-07-31T16:13:24.836Z,3.60
2022-07-31T16:15:53.878Z,2.30
2022-07-31T16:18:21.889Z,6.50
2022-07-31T16:20:50.147Z,6.20
2022-07-31T16:23:18.005Z,6.20
2022-07-31T16:25:46.226Z,2.50
2022-07-31T16:28:15.158Z,2.50
2022-07-31T16:30:43.909Z,9.70
2022-07-31T16:33:12.134Z,2.60
2022-07-31T16:35:39.871Z,3.00
2022-07-31T16:38:08.349Z,4.30
2022-07-31T16:40:36.138Z,2.20
2022-07-31T16:43:49.365Z,4.80
2022-07-31T16:45:55.166Z,3.60
2022-07-31T16:48:23.724Z,2.70
2022-07-31T16:50:53.472Z,3.90
2022-07-31T16:54:14.210Z,3.10
2022-07-31T16:56:16.438Z,1.60
2022-07-31T16:58:44.539Z,1.70
2022-07-31T17:01:58.916Z,2.70
2022-07-31T17:04:03.986Z,1.60
2022-07-31T17:06:38.414Z,2.10
2022-07-31T17:09:17.480Z,2.40
2022-07-31T17:11:48.845Z,2.60
2022-07-31T17:14:18.890Z,11.00
2022-07-31T17:16:49.176Z,5.50
2022-07-31T17:19:42.999Z,3.00
2022-07-31T17:22:07.615Z,4.80
2022-07-31T17:24:37.276Z,2.40
2022-07-31T17:27:08.060Z,2.00
2022-07-31T17:29:37.963Z,2.10
2022-07-31T17:32:06.220Z,1.90
2022-07-31T17:34:35.579Z,1.50
2022-07-31T17:37:04.750Z,3.10
2022-07-31T17:39:33.155Z,2.90
2022-07-31T17:42:01.033Z,2.20
2022-07-31T17:44:28.780Z,3.30
2022-07-31T17:46:57.991Z,1.30
2022-07-31T17:49:28.144Z,1.90
2022-07-31T17:51:59.889Z,2.00
2022-07-31T17:54:30.789Z,1.30
2022-07-31T17:56:59.721Z,1.80
2022-07-31T17:59:28.136Z,4.80
2022-07-31T18:02:00.471Z,2.40
2022-07-31T18:04:34.146Z,1.50
2022-07-31T18:07:04.453Z,1.70
2022-07-31T18:09:33.204Z,2.20
2022-07-31T18:12:01.118Z,1.90
2022-07-31T18:14:28.947Z,2.80
2022-07-31T18:16:56.715Z,1.40
2022-07-31T18:19:24.631Z,2.30
2022-07-31T18:21:53.410Z,2.30
2022-07-31T18:24:22.544Z,2.10
2022-07-31T18:26:51.892Z,2.40
2022-07-31T18:29:20.268Z,2.40
2022-07-31T18:31:48.551Z,1.40
2022-07-31T18:34:16.504Z,1.50
2022-07-31T18:36:44.691Z,4.40
2022-07-31T18:39:12.458Z,5.40
2022-07-31T18:41:43.493Z,2.70
2022-07-31T18:44:13.463Z,3.20
2022-07-31T18:46:41.280Z,2.00
2022-07-31T18:49:09.380Z,3.80
2022-07-31T18:51:56.948Z,2.20
2022-07-31T18:54:24.983Z,2.30
2022-07-31T18:56:52.665Z,3.80
2022-07-31T18:59:20.715Z,1.30
2022-07-31T19:01:48.554Z,2.20
2022-07-31T19:04:16.250Z,2.90
2022-07-31T19:06:44.951Z,5.40
2022-07-31T19:09:12.663Z,2.30
2022-07-31T19:11:40.911Z,4.60
2022-07-31T19:14:18.478Z,3.20
2022-07-31T19:16:46.248Z,5.20
2022-07-31T19:19:17.960Z,3.80
2022-07-31T19:21:45.646Z,3.10
2022-07-31T19:24:13.562Z,3.10
2022-07-31T19:26:41.222Z,3.80
2022-07-31T19:29:09.029Z,2.60
2022-07-31T19:31:37.632Z,4.90
2022-07-31T19:34:05.342Z,4.10
2022-07-31T19:36:33.166Z,3.70
2022-07-31T19:39:01.138Z,2.70
2022-07-31T19:41:29.023Z,2.00
2022-07-31T19:43:56.824Z,5.00
2022-07-31T19:46:24.740Z,5.70
2022-07-31T19:48:52.615Z,5.80
2022-07-31T19:51:20.564Z,8.50
2022-07-31T19:53:48.573Z,8.40
2022-07-31T19:56:20.826Z,12.20
2022-07-31T19:58:50.161Z,5.80
2022-07-31T20:01:21.920Z,5.40
2022-07-31T20:03:50.549Z,5.70
2022-07-31T20:06:18.522Z,5.60
2022-07-31T20:08:46.275Z,6.50
2022-07-31T20:11:14.008Z,7.20
2022-07-31T20:13:41.825Z,7.40
2022-07-31T20:16:10.031Z,8.20
2022-07-31T20:18:38.124Z,5.40
2022-07-31T20:21:09.012Z,4.10
2022-07-31T20:23:39.178Z,4.40
2022-07-31T20:26:09.197Z,4.70
2022-07-31T20:28:40.396Z,4.80
2022-07-31T20:31:15.890Z,4.20
2022-07-31T20:33:57.033Z,5.50
2022-07-31T20:36:28.443Z,4.00
2022-07-31T20:38:58.116Z,5.10
2022-07-31T20:41:27.484Z,4.50
2022-07-31T20:43:55.431Z,6.90
2022-07-31T20:46:23.401Z,4.70
2022-07-31T20:48:51.224Z,5.20
2022-07-31T20:51:21.919Z,7.10
2022-07-31T20:53:51.577Z,7.00
2022-07-31T20:56:19.616Z,6.10
2022-07-31T20:58:51.642Z,5.20
2022-07-31T21:01:23.308Z,6.20
2022-07-31T21:03:51.560Z,6.50
2022-07-31T21:06:21.043Z,6.70
2022-07-31T21:08:49.230Z,4.80
2022-07-31T21:11:16.969Z,3.90
2022-07-31T21:13:45.523Z,7.00
2022-07-31T21:16:13.441Z,9.00
2022-07-31T21:18:43.315Z,6.30
2022-07-31T21:21:11.688Z,6.00
2022-07-31T21:23:39.764Z,5.00
2022-07-31T21:26:08.320Z,7.40
2022-07-31T21:28:36.967Z,5.20
2022-07-31T21:31:05.464Z,5.50
2022-07-31T21:33:33.506Z,5.40
2022-07-31T21:36:02.059Z,6.40
2022-07-31T21:38:30.062Z,6.30
2022-07-31T21:40:58.009Z,9.30
2022-07-31T21:43:30.489Z,10.10
2022-07-31T21:46:09.409Z,6.30
2022-07-31T21:48:43.932Z,4.20
2022-07-31T21:51:14.275Z,4.00
2022-07-31T21:53:42.357Z,5.30
2022-07-31T21:56:12.048Z,4.50
2022-07-31T21:58:39.753Z,5.30
2022-07-31T22:01:07.496Z,4.20
2022-07-31T22:03:35.264Z,5.20
2022-07-31T22:06:26.030Z,4.40
2022-07-31T22:08:54.058Z,4.30
2022-07-31T22:11:21.759Z,6.40
2022-07-31T22:13:49.544Z,5.80
2022-07-31T22:16:17.266Z,4.00
2022-07-31T22:18:45.386Z,4.00
2022-07-31T22:21:13.478Z,4.20
2022-07-31T22:23:41.709Z,5.20
2022-07-31T22:26:10.656Z,8.90
2022-07-31T22:28:39.735Z,4.70
2022-07-31T22:31:10.382Z,5.60
2022-07-31T22:33:38.321Z,7.80
2022-07-31T22:36:09.472Z,5.70
2022-07-31T22:38:38.270Z,7.10
2022-07-31T22:41:06.638Z,5.60
2022-07-31T22:44:10.390Z,6.20
2022-07-31T22:46:22.886Z,4.90
2022-07-31T22:48:51.766Z,4.80
2022-07-31T22:51:19.553Z,4.20
2022-07-31T22:53:48.824Z,3.90
2022-07-31T22:56:18.196Z,4.90
2022-07-31T22:58:46.040Z,5.70
2022-07-31T23:01:13.854Z,6.30
2022-07-31T23:03:41.795Z,4.30
2022-07-31T23:06:31.337Z,5.00
2022-07-31T23:08:57.729Z,8.30
2022-07-31T23:11:25.600Z,4.80
2022-07-31T23:13:53.302Z,4.60
2022-07-31T23:16:21.079Z,8.10
2022-07-31T23:18:50.229Z,5.40
2022-07-31T23:21:18.944Z,4.00
2022-07-31T23:23:49.074Z,5.60
2022-07-31T23:26:24.325Z,5.30
2022-07-31T23:28:53.955Z,4.20
2022-07-31T23:31:22.700Z,4.80
2022-07-31T23:33:51.236Z,6.10
2022-07-31T23:36:19.552Z,4.40
2022-07-31T23:38:47.502Z,4.90
2022-07-31T23:41:15.664Z,4.60
2022-07-31T23:43:54.319Z,5.10
2022-07-31T23:46:26.554Z,4.50
2022-07-31T23:48:55.671Z,5.40
2022-07-31T23:51:23.693Z,4.20
2022-07-31T23:53:51.705Z,8.30
2022-07-31T23:56:19.908Z,5.10
2022-07-31T23:58:47.845Z,4.70
